Cicero, Illinois
Current Conditions -  °F | °C
As of 5:53 PM on Monday 22 Dec 2014 (Local Time) from KMDW Reporting Station
Light Rain Light Rain  
Wind Chill: 35°   Ceiling: 600
Heat Index: 42°   Visibility: 2mi
Dew Point: 39°   Wind: 13mph
Humidity: 89%   Direction: 120°ESE
Pressure: 29.68"   Gusts: NA
Location:  41.84°N, 87.75°W
Report Text: KMDW 222353Z 12011KT 2SM -RA BR OVC006 06/04 A2968 RMK AO2 SLP059 P0003 60020 T00560039 10056 20028 56015
Loading
Personal Weather Stations






























Interactive Weather Map New forecast layout! Learn more

10-Day Weather Forecast

Advertisements
Track Severe Weather on mobile